Time;durP1;ratioP1;P1;durP2;ratioP2;P2;SDS_P1;SDS_P2;PMS_P1;PMS_P2;Temp;Humidity;BMP_temperature;BMP_pressure;BME280_temperature;BME280_humidity;BME280_pressure;Samples;Min_cycle;Max_cycle;Signal;HPM_P1;HPM_P2
2021/10/08 00:00:22;;;;;;;0.90;0.88;;;20.90;50.20;;;24.83;33.72;102887.81;5113256;28;20101;-10
2021/10/08 00:02:48;;;;;;;0.75;0.75;;;21.00;50.30;;;24.83;33.70;102901.19;5113411;28;20054;-10
2021/10/08 00:05:14;;;;;;;0.60;0.60;;;21.00;50.20;;;24.85;33.66;102902.00;5113380;28;20054;-10
2021/10/08 00:07:40;;;;;;;0.85;0.80;;;21.00;50.20;;;24.83;33.69;102903.03;5112848;28;20051;-9
2021/10/08 00:10:07;;;;;;;0.80;0.75;;;21.00;50.20;;;24.84;33.66;102905.63;5113165;28;20047;-10
2021/10/08 00:12:34;;;;;;;1.13;0.90;;;21.00;50.20;;;24.85;33.70;102909.16;5112959;28;20513;-10
2021/10/08 00:15:00;;;;;;;0.80;0.80;;;21.00;50.30;;;24.82;33.65;102902.13;5113302;28;20100;-10
2021/10/08 00:17:26;;;;;;;0.90;0.82;;;21.00;50.30;;;24.84;33.52;102908.31;5112888;28;20130;-9
2021/10/08 00:19:52;;;;;;;0.80;0.80;;;21.00;50.20;;;24.84;33.53;102910.97;5112886;28;20521;-10
2021/10/08 00:22:17;;;;;;;0.65;0.65;;;21.00;50.30;;;24.83;33.48;102913.72;5112892;28;20044;-10
2021/10/08 00:24:43;;;;;;;0.80;0.80;;;20.90;50.30;;;24.83;33.71;102911.91;5112819;28;20105;-10
2021/10/08 00:27:09;;;;;;;0.70;0.60;;;20.90;50.30;;;24.83;33.76;102909.22;5112896;28;20056;-10
2021/10/08 00:29:34;;;;;;;1.02;0.85;;;20.90;50.30;;;24.82;33.58;102909.31;5113086;28;20502;-10
2021/10/08 00:32:00;;;;;;;0.95;0.85;;;20.90;50.30;;;24.81;33.48;102910.22;5113120;28;20468;-10
2021/10/08 00:34:26;;;;;;;0.77;0.77;;;20.90;50.90;;;24.80;33.63;102914.72;5094989;28;20391;-10
2021/10/08 00:36:52;;;;;;;0.95;0.60;;;20.90;50.30;;;24.82;33.74;102918.19;5094382;28;20040;-10
2021/10/08 00:39:18;;;;;;;0.68;0.68;;;20.90;50.30;;;24.80;33.68;102908.50;5094203;28;20062;-10
2021/10/08 00:41:44;;;;;;;0.60;0.60;;;20.90;50.30;;;24.81;33.65;102910.22;5112671;28;20043;-10
2021/10/08 00:44:11;;;;;;;1.05;0.90;;;20.90;50.30;;;24.80;33.75;102914.72;5128267;28;20161;-10
2021/10/08 00:46:39;;;;;;;0.60;0.60;;;20.90;50.40;;;24.79;33.75;102912.97;5077717;28;20040;-10
2021/10/08 00:49:04;;;;;;;0.90;0.70;;;20.90;50.40;;;24.80;33.64;102917.41;5112548;28;20054;-10
2021/10/08 00:51:30;;;;;;;0.68;0.68;;;20.90;50.40;;;24.78;33.74;102908.56;5112380;28;20048;-10
2021/10/08 00:53:56;;;;;;;0.70;0.70;;;20.90;50.40;;;24.80;33.71;102920.06;5094290;28;20081;-9
2021/10/08 00:56:22;;;;;;;0.70;0.70;;;20.90;50.40;;;24.78;33.61;102906.75;5112822;28;20063;-10
2021/10/08 00:58:49;;;;;;;1.00;0.70;;;20.90;50.30;;;24.78;33.58;102913.94;5112300;28;20411;-10
2021/10/08 01:01:16;;;;;;;1.10;1.00;;;20.90;50.30;;;24.80;33.75;102913.88;5094568;28;20044;-10
2021/10/08 01:03:42;;;;;;;1.48;0.70;;;20.90;50.30;;;24.77;33.86;102905.03;5112353;28;20054;-10
2021/10/08 01:06:09;;;;;;;0.90;0.80;;;20.90;50.40;;;24.76;33.82;102910.47;5094042;28;20056;-10
2021/10/08 01:08:35;;;;;;;1.10;0.70;;;20.90;50.30;;;24.78;33.50;102916.59;5114153;28;20047;-10
2021/10/08 01:11:03;;;;;;;0.70;0.70;;;20.90;50.30;;;24.74;33.72;102905.19;5097390;28;20044;-10
2021/10/08 01:13:30;;;;;;;0.80;0.80;;;20.90;50.30;;;24.80;33.54;102908.50;5131961;28;20050;-10
2021/10/08 01:15:56;;;;;;;0.95;0.90;;;20.90;50.40;;;24.77;33.67;102902.38;5132054;27;20407;-10
2021/10/08 01:18:26;;;;;;;0.80;0.80;;;20.90;50.30;;;24.78;33.67;102912.13;5131395;28;20059;-10
2021/10/08 01:20:54;;;;;;;0.63;0.63;;;20.90;50.40;;;24.76;33.79;102910.47;5097842;28;20143;-10
2021/10/08 01:23:21;;;;;;;0.80;0.80;;;20.90;50.30;;;24.77;33.67;102912.19;5115814;28;20134;-10
2021/10/08 01:25:52;;;;;;;0.80;0.80;;;20.90;50.30;;;24.78;33.70;102916.59;5115503;28;20479;-10
2021/10/08 01:28:23;;;;;;;0.65;0.65;;;20.90;50.40;;;24.78;33.68;102917.47;5097772;28;20108;-10
2021/10/08 01:30:49;;;;;;;0.70;0.70;;;20.90;50.40;;;24.75;33.71;102911.38;5115416;28;20044;-10
2021/10/08 01:33:17;;;;;;;0.88;0.80;;;20.90;50.40;;;24.77;33.64;102910.41;5097184;28;20058;-9
2021/10/08 01:35:49;;;;;;;0.63;0.63;;;20.90;50.40;;;24.75;33.73;102900.69;5115664;28;20090;-10
2021/10/08 01:38:15;;;;;;;0.90;0.90;;;20.90;50.30;;;24.76;33.68;102908.66;5115372;28;20483;-10
2021/10/08 01:40:41;;;;;;;0.70;0.70;;;20.90;50.40;;;24.76;33.78;102908.66;5097046;28;20051;-10
2021/10/08 01:43:12;;;;;;;0.80;0.80;;;20.90;50.40;;;24.75;33.56;102911.38;5097002;28;20048;-10
2021/10/08 01:45:38;;;;;;;0.70;0.70;;;20.90;50.30;;;24.75;33.72;102911.38;5096969;28;20046;-10
2021/10/08 01:48:07;;;;;;;1.40;0.70;;;20.90;50.30;;;24.73;33.63;102908.78;5096889;28;20130;-10
2021/10/08 01:50:34;;;;;;;0.65;0.65;;;20.90;50.40;;;24.72;33.73;102907.03;5097348;28;20096;-9
2021/10/08 01:53:00;;;;;;;0.70;0.70;;;20.90;50.40;;;24.72;33.75;102907.03;5096804;28;20483;-10
2021/10/08 01:55:26;;;;;;;0.70;0.70;;;20.90;50.40;;;24.74;33.75;102909.63;5131498;28;20082;-10
2021/10/08 01:57:57;;;;;;;0.70;0.70;;;20.90;50.40;;;24.75;33.58;102912.25;5130879;28;20502;-9
2021/10/08 02:00:25;;;;;;;0.70;0.70;;;20.90;50.30;;;24.72;33.72;102906.19;5096952;28;20050;-10
2021/10/08 02:03:03;;;;;;;0.70;0.70;;;20.80;50.30;;;24.74;33.64;102913.22;5097176;28;20047;-9
2021/10/08 02:05:29;;;;;;;0.70;0.70;;;20.90;50.40;;;24.72;33.58;102915.06;5096403;28;20108;-10
2021/10/08 02:07:55;;;;;;;0.68;0.63;;;20.80;50.30;;;24.69;33.64;102908.97;5130653;28;20079;-10
2021/10/08 02:10:27;;;;;;;0.70;0.70;;;20.80;50.30;;;24.74;33.50;102915.88;5130643;28;20039;-10
2021/10/08 02:12:53;;;;;;;0.70;0.70;;;20.90;50.40;;;24.72;33.71;102912.38;5096353;28;20050;-10
2021/10/08 02:15:19;;;;;;;1.10;1.00;;;20.80;50.30;;;24.69;33.66;102911.66;5096307;28;20044;-10
2021/10/08 02:17:46;;;;;;;0.80;0.80;;;20.80;50.40;;;24.69;33.74;102912.56;5096432;28;20048;-9
2021/10/08 02:20:12;;;;;;;0.90;0.90;;;20.80;50.30;;;24.70;33.61;102922.28;5095676;28;20138;-9
2021/10/08 02:22:41;;;;;;;0.70;0.70;;;20.80;50.30;;;24.71;33.88;102917.84;5096685;28;20075;-9
2021/10/08 02:25:08;;;;;;;0.80;0.80;;;20.80;50.30;;;24.70;33.82;102929.47;5111900;28;20063;-10
2021/10/08 02:27:34;;;;;;;0.77;0.77;;;20.80;50.30;;;24.68;33.79;102926.84;5096227;28;20050;-10
2021/10/08 02:30:03;;;;;;;0.60;0.60;;;20.80;50.30;;;24.71;33.93;102925.84;5096087;28;20372;-10
2021/10/08 02:32:29;;;;;;;0.80;0.70;;;20.80;50.30;;;24.70;33.72;102921.44;5095714;28;20040;-10
2021/10/08 02:34:55;;;;;;;0.90;0.90;;;20.80;50.30;;;24.69;33.76;102925.94;5130063;28;20054;-10
2021/10/08 02:37:21;;;;;;;0.65;0.65;;;20.80;50.30;;;24.69;33.83;102922.34;5130142;28;20044;-10
2021/10/08 02:39:47;;;;;;;0.80;0.80;;;20.80;50.30;;;24.68;33.87;102928.66;5093777;28;20096;-10
2021/10/08 02:42:13;;;;;;;1.02;0.90;;;20.80;50.40;;;24.68;33.87;102931.34;5096045;28;20058;-10
2021/10/08 02:44:40;;;;;;;0.70;0.70;;;20.80;50.40;;;24.70;33.70;102941.03;5096048;28;20429;-10
2021/10/08 02:47:05;;;;;;;0.88;0.80;;;20.80;50.40;;;24.68;33.73;102936.69;5096016;28;20040;-10
2021/10/08 02:49:31;;;;;;;0.95;0.80;;;20.80;50.40;;;24.69;33.63;102938.41;5095857;28;20093;-10
2021/10/08 02:51:57;;;;;;;0.90;0.90;;;20.80;50.40;;;24.71;33.77;102941.91;5129895;28;20407;-10
2021/10/08 02:54:23;;;;;;;0.70;0.63;;;20.80;50.40;;;24.67;33.85;102937.63;5095901;28;20071;-10
2021/10/08 02:56:49;;;;;;;0.70;0.70;;;20.70;50.70;;;24.63;33.76;102939.56;5114182;28;20047;-10
2021/10/08 02:59:15;;;;;;;1.10;0.95;;;20.60;50.80;;;24.66;33.90;102946.56;5129564;28;20047;-10
2021/10/08 03:01:40;;;;;;;0.93;0.88;;;20.60;51.00;;;24.63;33.76;102942.25;5129816;28;20044;-10
2021/10/08 03:04:06;;;;;;;1.08;0.80;;;20.60;51.00;;;24.68;33.88;102950.06;5095720;28;20503;-10
2021/10/08 03:06:32;;;;;;;0.98;0.88;;;20.60;51.00;;;24.66;33.88;102946.56;5114099;28;20052;-10
2021/10/08 03:09:02;;;;;;;1.15;0.80;;;20.60;51.00;;;24.66;33.87;102944.78;5095714;28;20047;-9
2021/10/08 03:11:28;;;;;;;0.85;0.85;;;20.60;51.00;;;24.66;33.91;102944.78;5129446;28;20047;-9
2021/10/08 03:13:55;;;;;;;0.70;0.70;;;20.60;51.00;;;24.70;33.92;102951.72;5095562;28;20048;-10
2021/10/08 03:16:22;;;;;;;1.00;0.90;;;20.60;51.00;;;24.69;34.04;102949.09;5129550;28;20048;-10
2021/10/08 03:18:48;;;;;;;0.90;0.90;;;20.60;50.90;;;24.72;33.93;102951.66;5093481;28;20044;-10
2021/10/08 03:21:14;;;;;;;0.70;0.70;;;20.70;50.90;;;24.74;33.95;102952.44;5095282;28;20048;-10
2021/10/08 03:23:39;;;;;;;0.80;0.80;;;20.70;50.90;;;24.72;33.81;102948.97;5095419;28;20040;-10
2021/10/08 03:26:07;;;;;;;0.82;0.80;;;20.70;50.80;;;24.78;33.81;102954.06;5129967;28;20046;-9
2021/10/08 03:28:33;;;;;;;0.65;0.65;;;20.70;50.70;;;24.79;33.77;102953.09;5113817;28;20055;-10
2021/10/08 03:31:00;;;;;;;0.85;0.80;;;20.80;50.70;;;24.78;33.68;102952.25;5094520;28;20047;-9
2021/10/08 03:33:26;;;;;;;1.00;0.90;;;20.80;50.60;;;24.84;33.87;102956.47;5095416;28;20142;-10
2021/10/08 03:35:52;;;;;;;0.82;0.70;;;20.80;50.50;;;24.84;33.68;102948.44;5129644;28;20126;-10
2021/10/08 03:38:19;;;;;;;0.80;0.73;;;20.90;50.50;;;24.89;33.70;102961.59;5113599;28;20540;-10
2021/10/08 03:40:56;;;;;;;0.77;0.77;;;20.90;50.50;;;24.88;33.57;102951.84;5113526;28;20051;-10
2021/10/08 03:43:22;;;;;;;1.25;0.75;;;20.90;50.40;;;24.92;33.63;102954.28;5095556;28;20058;-10
2021/10/08 03:45:52;;;;;;;1.10;1.00;;;20.90;50.40;;;24.95;33.66;102958.63;5113392;28;20043;-10
2021/10/08 03:50:48;;;;;;;0.93;0.90;;;21.00;50.30;;;24.97;33.58;102956.75;5095423;28;20047;-9
2021/10/08 03:53:14;;;;;;;0.75;0.70;;;21.00;50.20;;;25.00;33.69;102958.44;5113259;28;20134;-10
2021/10/08 03:55:41;;;;;;;0.68;0.68;;;21.00;50.20;;;25.01;33.45;102954.81;5113261;28;20067;-10
2021/10/08 03:58:06;;;;;;;0.70;0.70;;;21.00;50.70;;;25.02;33.63;102961.91;5113198;28;20051;-10
2021/10/08 04:00:33;;;;;;;0.82;0.73;;;21.00;50.10;;;25.05;33.41;102965.28;5094868;28;20058;-10
2021/10/08 04:03:08;;;;;;;0.70;0.70;;;21.00;50.10;;;25.06;33.62;102959.03;5095004;28;20059;-10
2021/10/08 04:05:33;;;;;;;0.80;0.77;;;21.00;50.10;;;25.05;33.46;102959.94;5113119;28;20047;-10
2021/10/08 04:08:00;;;;;;;0.80;0.80;;;21.00;50.00;;;25.08;33.38;102962.47;5128918;28;20507;-10
2021/10/08 04:10:28;;;;;;;0.80;0.80;;;21.10;50.00;;;25.11;33.49;102972.19;5095091;28;20051;-10
2021/10/08 04:12:54;;;;;;;0.95;0.90;;;21.10;49.90;;;25.10;33.37;102965.94;5092723;28;20083;-9
2021/10/08 04:15:21;;;;;;;0.75;0.75;;;21.10;49.90;;;25.09;33.25;102964.22;5093103;28;20047;-10
2021/10/08 04:17:48;;;;;;;0.65;0.65;;;21.10;49.90;;;25.11;33.37;102972.19;5094475;28;20051;-9
2021/10/08 04:20:16;;;;;;;1.15;0.80;;;21.00;50.00;;;25.07;33.23;102959.88;5094593;28;20052;-11
2021/10/08 04:22:42;;;;;;;0.70;0.70;;;21.10;50.00;;;25.08;33.20;102970.50;5094640;28;20047;-10
2021/10/08 04:25:09;;;;;;;0.80;0.80;;;21.10;50.10;;;25.08;33.26;102964.31;5128585;28;20043;-10
2021/10/08 04:27:36;;;;;;;0.80;0.80;;;21.00;50.10;;;25.12;33.23;102973.91;5095100;28;20058;-9
2021/10/08 04:30:04;;;;;;;0.85;0.80;;;21.00;50.00;;;25.10;33.26;102968.63;5094762;28;20415;-10
2021/10/08 04:32:31;;;;;;;0.70;0.70;;;21.00;50.10;;;25.09;33.36;102969.59;5128426;28;20043;-10
2021/10/08 04:34:57;;;;;;;1.30;1.00;;;21.00;50.10;;;25.11;33.27;102969.53;5092221;28;20044;-10
2021/10/08 04:37:24;;;;;;;1.08;0.90;;;21.00;50.10;;;25.10;33.31;102976.66;5094472;28;20051;-9
2021/10/08 04:39:50;;;;;;;0.80;0.80;;;21.00;50.10;;;25.09;33.27;102977.63;5094236;28;20044;-10
2021/10/08 04:42:16;;;;;;;0.85;0.80;;;21.00;50.00;;;25.08;33.26;102973.19;5092153;28;20050;-10
2021/10/08 04:44:42;;;;;;;1.40;1.00;;;21.00;50.00;;;25.10;33.18;102983.81;5096222;28;20054;-10
2021/10/08 04:47:10;;;;;;;0.77;0.52;;;21.10;49.80;;;25.07;33.24;102971.44;5096152;28;20051;-10
2021/10/08 04:49:36;;;;;;;0.90;0.90;;;21.10;49.70;;;25.09;33.11;102979.41;5116062;28;20051;-10
2021/10/08 04:52:03;;;;;;;1.02;0.90;;;21.10;49.80;;;25.09;33.21;102974.06;5098224;28;20083;-9
2021/10/08 04:54:29;;;;;;;1.05;0.90;;;21.10;49.80;;;25.09;33.12;102982.97;5116457;28;20070;-10
2021/10/08 04:56:55;;;;;;;0.85;0.85;;;21.00;49.80;;;25.09;33.18;102984.75;5116108;28;20075;-10
2021/10/08 04:59:21;;;;;;;0.90;0.80;;;21.00;49.90;;;25.07;33.23;102984.81;5116267;28;20068;-10
2021/10/08 05:01:47;;;;;;;0.75;0.75;;;21.00;49.90;;;25.07;33.26;102987.50;5097627;28;20048;-10
2021/10/08 05:04:13;;;;;;;1.00;0.90;;;21.00;50.00;;;25.05;33.17;102981.34;5116104;28;20047;-10
2021/10/08 05:06:39;;;;;;;0.73;0.73;;;21.10;49.90;;;25.07;33.14;102989.31;5097664;28;20047;-10
2021/10/08 05:09:05;;;;;;;0.77;0.77;;;21.00;49.80;;;25.07;33.33;102986.66;5113784;28;20552;-10
2021/10/08 05:11:30;;;;;;;0.80;0.80;;;21.00;49.90;;;25.04;33.37;102990.34;5131507;28;20055;-10
2021/10/08 05:13:56;;;;;;;0.70;0.70;;;21.00;49.90;;;25.06;33.24;102991.13;5097476;28;20040;-10
2021/10/08 05:16:23;;;;;;;1.00;0.88;;;21.00;49.90;;;25.04;33.24;102990.34;5097423;28;20468;-9
2021/10/08 05:18:49;;;;;;;0.90;0.90;;;21.00;50.00;;;25.04;33.12;102994.81;5094933;28;20058;-10
2021/10/08 05:21:19;;;;;;;0.85;0.80;;;21.00;50.10;;;25.03;33.12;102991.28;5097304;28;20043;-10
2021/10/08 05:23:46;;;;;;;0.77;0.77;;;21.00;50.10;;;25.05;33.20;102993.88;5097836;28;20120;-10
2021/10/08 05:26:12;;;;;;;0.93;0.80;;;21.00;50.10;;;25.04;33.24;102993.03;5097340;28;20403;-10
2021/10/08 05:28:38;;;;;;;0.77;0.77;;;20.90;50.20;;;25.02;33.37;102991.34;5097206;28;20048;-10
2021/10/08 05:31:06;;;;;;;1.08;0.90;;;20.90;50.20;;;25.02;33.19;102996.69;5097065;28;20395;-10
2021/10/08 05:33:32;;;;;;;1.05;0.80;;;20.90;50.10;;;25.02;33.35;102988.66;5097101;28;20447;-10
2021/10/08 05:35:58;;;;;;;1.00;0.90;;;20.90;50.20;;;25.00;33.36;102990.56;5097498;28;20138;-10
2021/10/08 05:38:24;;;;;;;0.95;0.90;;;20.90;50.20;;;24.99;33.22;102988.81;5097005;28;20040;-10
2021/10/08 05:40:52;;;;;;;0.80;0.80;;;20.90;50.20;;;24.99;33.29;102995.00;5096912;28;20459;-10
2021/10/08 05:43:20;;;;;;;1.08;0.98;;;20.90;50.20;;;24.98;33.40;102989.75;5080659;28;20055;-9
2021/10/08 05:45:50;;;;;;;0.95;0.80;;;20.90;50.30;;;25.00;33.21;102994.09;5114916;28;20063;-10
2021/10/08 05:48:15;;;;;;;0.80;0.80;;;20.90;50.30;;;25.00;33.36;102993.22;5096883;28;20047;-10
2021/10/08 05:50:41;;;;;;;0.80;0.75;;;20.90;50.30;;;25.02;33.28;103002.03;5096918;28;20044;-10
2021/10/08 05:53:11;;;;;;;0.80;0.80;;;20.90;50.20;;;24.99;33.18;102989.66;5096837;28;20106;-10
2021/10/08 05:55:38;;;;;;;0.65;0.65;;;21.00;50.20;;;25.07;33.30;103006.25;5096320;28;20051;-10
2021/10/08 05:58:08;;;;;;;0.98;0.90;;;21.00;50.10;;;25.08;33.30;103010.66;5115057;28;20054;-10
2021/10/08 06:00:37;;;;;;;0.90;0.90;;;21.00;49.90;;;25.07;33.19;103003.56;5096735;28;20043;-10
2021/10/08 06:03:04;;;;;;;0.90;0.90;;;21.20;49.60;;;25.09;33.29;103011.53;5096698;28;20058;-10
2021/10/08 06:05:34;;;;;;;0.80;0.80;;;21.20;49.60;;;25.12;33.26;103011.38;5114986;28;20058;-10
2021/10/08 06:08:00;;;;;;;0.80;0.80;;;21.20;49.60;;;25.12;33.11;103017.59;5096620;28;20055;-10
2021/10/08 06:10:27;;;;;;;0.80;0.80;;;21.20;49.50;;;25.15;33.23;103024.63;5094778;28;20507;-10
2021/10/08 06:12:52;;;;;;;0.70;0.70;;;21.20;49.60;;;25.13;33.22;103018.50;5096956;28;20044;-9
2021/10/08 06:15:18;;;;;;;0.88;0.77;;;21.30;49.40;;;25.13;33.14;103019.34;5130566;28;20039;-10
2021/10/08 06:17:48;;;;;;;1.00;1.00;;;21.30;49.30;;;25.14;33.14;103021.09;5096644;28;20067;-10
2021/10/08 06:20:16;;;;;;;0.90;0.82;;;21.30;49.30;;;25.12;33.02;103036.34;5096697;28;20062;-10
2021/10/08 06:22:46;;;;;;;1.08;0.88;;;21.30;49.30;;;25.13;33.14;103030.06;5094795;28;20052;-11
2021/10/08 06:25:16;;;;;;;0.70;0.70;;;21.20;49.40;;;25.14;33.08;103036.28;5097073;28;20071;-10
2021/10/08 06:27:42;;;;;;;0.80;0.80;;;21.20;49.40;;;25.17;33.23;103041.50;5130374;28;20044;-9
2021/10/08 06:30:08;;;;;;;0.95;0.80;;;21.10;49.50;;;25.15;33.03;103033.53;5096193;28;20044;-10
2021/10/08 06:32:37;;;;;;;0.60;0.60;;;21.20;49.60;;;25.15;32.99;103046.06;5096154;28;20043;-10
2021/10/08 06:35:05;;;;;;;0.73;0.70;;;21.20;49.30;;;25.14;32.99;103041.63;5096852;28;20536;-10
2021/10/08 06:37:32;;;;;;;0.82;0.77;;;21.30;49.20;;;25.18;32.96;103037.03;5096384;28;20071;-10
2021/10/08 06:39:59;;;;;;;0.80;0.80;;;21.40;49.10;;;25.19;33.06;103038.75;5129719;28;20484;-10
2021/10/08 06:42:25;;;;;;;1.00;1.00;;;21.30;49.10;;;25.20;33.09;103053.88;5093961;28;20054;-10
2021/10/08 06:44:57;;;;;;;1.08;0.80;;;21.40;49.10;;;25.21;33.08;103053.81;5095838;28;20055;-10
2021/10/08 06:47:23;;;;;;;1.50;0.90;;;21.40;49.00;;;25.23;32.94;103056.44;5114267;28;20479;-10
2021/10/08 06:49:50;;;;;;;0.82;0.80;;;21.40;49.00;;;25.29;33.10;103051.69;5129690;28;20135;-10
2021/10/08 06:52:15;;;;;;;1.10;1.00;;;21.50;49.00;;;25.32;32.96;103048.00;5093696;28;20043;-11
2021/10/08 06:54:44;;;;;;;1.45;0.90;;;21.50;49.00;;;25.40;32.90;103053.00;5093381;28;20087;-10
2021/10/08 06:57:10;;;;;;;0.80;0.80;;;21.50;48.90;;;25.45;33.03;103056.34;5095569;28;20487;-10
2021/10/08 06:59:36;;;;;;;0.90;0.90;;;21.50;48.80;;;25.49;32.77;103056.13;5095753;28;20054;-9
2021/10/08 07:02:03;;;;;;;1.05;1.00;;;21.60;48.60;;;25.53;32.97;103054.16;5095796;28;20058;-10
2021/10/08 07:04:29;;;;;;;0.70;0.70;;;21.60;48.50;;;25.57;32.82;103055.75;5096386;28;20078;-10
2021/10/08 07:06:55;;;;;;;0.80;0.80;;;21.70;48.60;;;25.63;32.59;103054.59;5095161;28;20048;-10
2021/10/08 07:09:43;;;;;;;0.80;0.80;;;21.70;48.40;;;25.66;32.49;103068.72;5096203;28;20043;-10
2021/10/08 07:12:09;;;;;;;0.80;0.80;;;21.70;48.30;;;25.68;32.46;103060.63;5093687;28;20051;-9
2021/10/08 07:14:35;;;;;;;0.82;0.75;;;21.80;48.30;;;25.69;32.56;103068.56;5113927;28;20051;-10
2021/10/08 07:17:00;;;;;;;0.90;0.90;;;21.70;48.30;;;25.71;32.52;103065.81;5113789;28;20130;-10
2021/10/08 07:19:26;;;;;;;0.93;0.82;;;21.80;48.40;;;25.75;32.53;103069.22;5095522;28;20498;-10
2021/10/08 07:21:53;;;;;;;0.80;0.75;;;21.80;48.30;;;25.79;32.42;103071.66;5113748;28;20051;-10
2021/10/08 07:24:19;;;;;;;0.90;0.90;;;21.90;48.00;;;25.80;32.46;103069.88;5113671;28;20081;-10
2021/10/08 07:26:45;;;;;;;0.82;0.82;;;22.00;48.00;;;25.84;32.36;103071.44;5113750;28;20082;-10
2021/10/08 07:29:10;;;;;;;0.80;0.80;;;22.00;47.90;;;25.85;32.15;103071.38;5113733;28;20047;-10
2021/10/08 07:31:37;;;;;;;0.85;0.85;;;21.90;48.00;;;25.89;32.26;103078.34;5113638;28;20059;-10
2021/10/08 07:34:02;;;;;;;1.15;0.70;;;21.90;48.00;;;25.90;32.30;103076.53;5113945;28;20088;-10
2021/10/08 07:36:28;;;;;;;1.08;0.98;;;22.00;47.90;;;25.92;32.17;103069.28;5114172;28;20051;-10
2021/10/08 07:38:54;;;;;;;0.80;0.80;;;22.00;47.70;;;25.95;32.19;103069.16;5113510;28;20040;-10
2021/10/08 07:41:20;;;;;;;0.80;0.80;;;22.00;47.60;;;25.96;32.03;103078.06;5111391;28;20058;-10
2021/10/08 07:43:46;;;;;;;0.90;0.90;;;22.10;47.70;;;25.98;32.12;103082.41;5114037;28;20097;-10
2021/10/08 07:46:12;;;;;;;0.95;0.90;;;22.10;47.60;;;26.01;32.02;103092.09;5113192;28;20051;-9
2021/10/08 07:48:39;;;;;;;0.90;0.90;;;22.10;47.60;;;25.97;32.13;103086.03;5095167;28;20047;-10
2021/10/08 07:51:05;;;;;;;0.90;0.90;;;22.10;47.50;;;26.02;32.04;103088.50;5113362;28;20039;-10
2021/10/08 07:53:31;;;;;;;0.90;0.90;;;22.10;48.20;;;25.98;32.11;103082.41;5113249;28;20059;-9
2021/10/08 07:55:58;;;;;;;1.08;1.00;;;22.10;47.70;;;26.01;32.06;103097.47;5113721;28;20373;-10
2021/10/08 07:58:27;;;;;;;1.15;1.05;;;22.00;47.90;;;25.95;32.07;103089.72;5113187;28;20130;-10
2021/10/08 08:00:57;;;;;;;1.20;1.10;;;21.90;47.90;;;25.95;32.04;103089.72;5111372;28;20046;-10
2021/10/08 08:03:23;;;;;;;1.53;1.27;;;21.90;47.90;;;25.97;31.92;103091.38;5111670;28;20054;-10
2021/10/08 08:05:49;;;;;;;0.75;0.75;;;21.90;47.90;;;25.95;32.05;103090.59;5112985;28;20055;-10
2021/10/08 08:08:15;;;;;;;0.85;0.85;;;21.90;47.90;;;25.94;31.95;103091.50;5113069;28;20488;-9
2021/10/08 08:10:41;;;;;;;1.00;0.90;;;21.90;47.80;;;25.95;31.81;103100.44;5112972;28;20097;-10
2021/10/08 08:13:08;;;;;;;0.70;0.70;;;22.00;47.80;;;25.93;31.96;103099.63;5112789;28;20047;-10
2021/10/08 08:15:34;;;;;;;0.75;0.75;;;22.00;47.60;;;25.93;31.92;103096.94;5112815;28;20441;-10
2021/10/08 08:18:00;;;;;;;0.70;0.70;;;22.00;47.60;;;25.92;31.79;103097.91;5097610;28;20069;-10
2021/10/08 08:20:26;;;;;;;0.90;0.90;;;22.00;47.60;;;25.88;32.03;103083.78;5120129;28;20056;-10
2021/10/08 08:22:52;;;;;;;1.00;0.90;;;22.00;47.60;;;25.88;31.91;103098.03;5119593;28;20100;-10
2021/10/08 08:25:17;;;;;;;0.93;0.90;;;22.00;47.60;;;25.86;32.21;103085.63;5119607;28;20055;-10
2021/10/08 08:27:45;;;;;;;0.80;0.80;;;22.00;47.60;;;25.84;32.05;103090.22;5120209;28;20051;-10
2021/10/08 08:30:12;;;;;;;0.93;0.93;;;22.00;47.60;;;25.83;31.92;103091.16;5119939;28;20043;-10
2021/10/08 08:32:41;;;;;;;0.88;0.80;;;22.00;47.60;;;25.79;31.95;103094.91;5119579;28;20039;-10
2021/10/08 08:35:08;;;;;;;1.33;1.02;;;22.00;47.60;;;25.80;32.04;103099.34;5119604;28;20093;-9
2021/10/08 08:37:36;;;;;;;1.38;0.88;;;22.00;47.60;;;25.76;32.16;103098.63;5119450;28;20142;-10
2021/10/08 08:40:07;;;;;;;1.02;0.90;;;22.00;47.70;;;25.77;31.99;103103.03;5119591;28;20483;-10
2021/10/08 08:42:34;;;;;;;0.98;0.80;;;22.00;47.80;;;25.71;32.08;103087.25;5119362;28;20058;-10
2021/10/08 08:45:01;;;;;;;0.80;0.80;;;21.90;47.70;;;25.72;32.09;103096.16;5100901;28;20047;-10
2021/10/08 08:47:26;;;;;;;0.93;0.88;;;21.90;47.80;;;25.72;32.05;103090.81;5119344;28;20066;-10
2021/10/08 08:49:53;;;;;;;1.10;0.90;;;21.90;47.80;;;25.72;32.07;103093.47;5119259;28;20399;-10
2021/10/08 08:52:21;;;;;;;0.77;0.77;;;21.90;47.80;;;25.65;32.24;103083.03;5119570;28;20058;-9
2021/10/08 08:54:47;;;;;;;0.80;0.80;;;21.90;47.90;;;25.65;32.17;103076.81;5119236;28;20047;-9
2021/10/08 08:57:18;;;;;;;0.70;0.70;;;21.90;47.90;;;25.64;32.13;103078.66;5118980;28;20445;-9
2021/10/08 09:00:12;;;;;;;0.70;0.70;;;21.80;47.90;;;25.65;32.22;103088.41;5119286;28;20051;-9
2021/10/08 09:02:40;;;;;;;0.63;0.63;;;21.80;48.00;;;25.63;32.36;103078.72;5134989;27;20058;-9
2021/10/08 09:05:18;;;;;;;0.88;0.85;;;21.80;47.90;;;25.59;32.23;103086.00;5119101;28;20502;-9
2021/10/08 09:07:45;;;;;;;1.50;0.80;;;21.80;47.90;;;25.61;32.18;103091.28;5100781;28;20088;-9
2021/10/08 09:10:18;;;;;;;0.80;0.80;;;21.80;48.00;;;25.59;32.22;103091.34;5119165;28;20043;-9
2021/10/08 09:12:48;;;;;;;0.80;0.80;;;21.80;48.00;;;25.58;32.40;103083.44;5119042;28;20483;-9
2021/10/08 09:15:17;;;;;;;0.70;0.70;;;21.80;48.00;;;25.59;32.28;103095.84;5101048;28;20467;-9
2021/10/08 09:17:46;;;;;;;0.90;0.77;;;21.80;48.10;;;25.59;32.29;103094.03;5118856;28;20061;-10
2021/10/08 09:20:16;;;;;;;0.70;0.70;;;21.80;48.10;;;25.59;32.23;103094.03;5119185;28;20244;-9
2021/10/08 09:22:45;;;;;;;1.35;0.90;;;21.70;48.10;;;25.58;32.29;103086.97;5118985;28;20043;-9
2021/10/08 09:25:26;;;;;;;2.72;0.90;;;21.70;48.20;;;25.56;32.42;103090.63;5118809;28;20130;-9
2021/10/08 09:28:06;;;;;;;1.02;0.93;;;21.70;48.30;;;25.56;32.40;103091.53;5118875;28;20052;-9
2021/10/08 09:30:39;;;;;;;1.05;0.95;;;21.70;48.30;;;25.56;32.35;103091.53;5131534;27;20593;-9
2021/10/08 09:33:07;;;;;;;0.80;0.80;;;21.60;48.50;;;25.58;32.33;103088.78;5115513;28;20046;-9
2021/10/08 09:35:33;;;;;;;0.80;0.80;;;21.60;48.50;;;25.58;32.33;103091.47;5115534;28;20127;-9
2021/10/08 09:38:18;;;;;;;0.90;0.90;;;21.60;48.50;;;25.55;32.25;103089.78;5115297;28;20039;-9
2021/10/08 09:40:57;;;;;;;1.60;1.00;;;21.60;48.40;;;25.55;32.47;103097.81;5113203;28;20047;-9
2021/10/08 09:43:23;;;;;;;1.50;1.40;;;21.70;48.50;;;25.56;32.32;103093.31;5115472;28;20044;-9
2021/10/08 09:46:00;;;;;;;0.80;0.80;;;21.70;48.30;;;25.55;32.30;103095.13;5115372;28;20109;-10
2021/10/08 09:48:36;;;;;;;0.88;0.88;;;21.70;48.30;;;25.51;32.48;103086.38;5115289;28;20109;-9
2021/10/08 09:51:07;;;;;;;0.75;0.75;;;21.70;48.30;;;25.56;32.34;103087.97;5115575;28;20491;-9
2021/10/08 09:53:52;;;;;;;0.98;0.88;;;21.80;48.30;;;25.55;32.38;103092.47;5115229;28;20051;-9
2021/10/08 09:56:40;;;;;;;1.30;1.20;;;21.80;48.20;;;25.52;32.35;103073.84;5115067;28;20073;-9
2021/10/08 09:59:12;;;;;;;1.08;0.98;;;21.80;48.10;;;25.50;32.18;103076.59;5114907;28;20500;-9
2021/10/08 10:01:41;;;;;;;1.00;0.90;;;21.70;48.10;;;25.48;32.40;103067.78;5114982;28;20086;-9
2021/10/08 10:04:09;;;;;;;2.65;1.05;;;21.80;48.10;;;25.50;32.46;103073.06;5114954;28;20051;-9
2021/10/08 10:06:37;;;;;;;0.73;0.73;;;21.80;48.10;;;25.52;32.37;103079.19;5114896;28;20062;-9
2021/10/08 10:09:04;;;;;;;0.90;0.90;;;21.80;48.10;;;25.47;32.38;103071.38;5096857;28;20040;-9
2021/10/08 10:11:30;;;;;;;1.02;0.80;;;21.80;48.10;;;25.50;32.39;103078.41;5115093;28;20051;-9
2021/10/08 10:13:59;;;;;;;1.70;1.30;;;21.70;48.00;;;25.48;32.28;103070.44;5114887;28;20408;-9
2021/10/08 10:16:28;;;;;;;0.80;0.80;;;21.80;48.10;;;25.50;32.49;103086.44;5115133;28;20047;-9
2021/10/08 10:18:57;;;;;;;1.35;0.93;;;21.80;48.10;;;25.52;32.26;103085.41;5114810;28;20048;-9